sensor_id;sensor_type;location;lat;lon;timestamp;P1;durP1;ratioP1;P2;durP2;ratioP2
67514;SDS011;60646;55.802;37.032;2023-02-01T00:01:53;5.78;;;1.90;;
67514;SDS011;60646;55.802;37.032;2023-02-01T00:04:19;5.28;;;2.55;;
67514;SDS011;60646;55.802;37.032;2023-02-01T00:06:45;4.30;;;2.28;;
67514;SDS011;60646;55.802;37.032;2023-02-01T00:09:11;4.63;;;2.42;;
67514;SDS011;60646;55.802;37.032;2023-02-01T00:11:37;5.47;;;2.65;;
67514;SDS011;60646;55.802;37.032;2023-02-01T00:14:03;5.30;;;2.45;;
67514;SDS011;60646;55.802;37.032;2023-02-01T00:16:29;6.20;;;2.80;;
67514;SDS011;60646;55.802;37.032;2023-02-01T00:19:03;5.53;;;2.70;;
67514;SDS011;60646;55.802;37.032;2023-02-01T00:21:31;5.60;;;2.50;;
67514;SDS011;60646;55.802;37.032;2023-02-01T00:23:58;6.32;;;2.80;;
67514;SDS011;60646;55.802;37.032;2023-02-01T00:29:00;7.13;;;2.85;;
67514;SDS011;60646;55.802;37.032;2023-02-01T00:31:27;4.90;;;2.80;;
67514;SDS011;60646;55.802;37.032;2023-02-01T00:33:53;7.05;;;3.13;;
67514;SDS011;60646;55.802;37.032;2023-02-01T00:36:18;4.90;;;2.60;;
67514;SDS011;60646;55.802;37.032;2023-02-01T00:38:44;6.53;;;3.03;;
67514;SDS011;60646;55.802;37.032;2023-02-01T00:41:11;5.75;;;3.15;;
67514;SDS011;60646;55.802;37.032;2023-02-01T00:43:37;6.07;;;2.80;;
67514;SDS011;60646;55.802;37.032;2023-02-01T00:46:03;6.53;;;2.90;;
67514;SDS011;60646;55.802;37.032;2023-02-01T00:48:29;5.45;;;2.58;;
67514;SDS011;60646;55.802;37.032;2023-02-01T00:50:59;6.10;;;2.83;;
67514;SDS011;60646;55.802;37.032;2023-02-01T00:53:29;6.00;;;2.70;;
67514;SDS011;60646;55.802;37.032;2023-02-01T00:55:55;5.68;;;2.72;;
67514;SDS011;60646;55.802;37.032;2023-02-01T00:58:21;8.55;;;2.72;;
67514;SDS011;60646;55.802;37.032;2023-02-01T01:00:49;6.45;;;2.90;;
67514;SDS011;60646;55.802;37.032;2023-02-01T01:03:15;4.47;;;2.47;;
67514;SDS011;60646;55.802;37.032;2023-02-01T01:05:47;5.80;;;2.83;;
67514;SDS011;60646;55.802;37.032;2023-02-01T01:08:14;5.63;;;2.67;;
67514;SDS011;60646;55.802;37.032;2023-02-01T01:10:41;4.85;;;2.53;;
67514;SDS011;60646;55.802;37.032;2023-02-01T01:13:07;5.10;;;2.95;;
67514;SDS011;60646;55.802;37.032;2023-02-01T01:15:40;6.05;;;3.20;;
67514;SDS011;60646;55.802;37.032;2023-02-01T01:20:36;5.97;;;2.58;;
67514;SDS011;60646;55.802;37.032;2023-02-01T01:23:04;5.72;;;2.65;;
67514;SDS011;60646;55.802;37.032;2023-02-01T01:25:30;4.28;;;2.35;;
67514;SDS011;60646;55.802;37.032;2023-02-01T01:27:56;7.00;;;2.92;;
67514;SDS011;60646;55.802;37.032;2023-02-01T01:30:22;6.30;;;2.72;;
67514;SDS011;60646;55.802;37.032;2023-02-01T01:32:49;6.55;;;2.63;;
67514;SDS011;60646;55.802;37.032;2023-02-01T01:35:15;5.32;;;2.83;;
67514;SDS011;60646;55.802;37.032;2023-02-01T01:37:44;4.18;;;2.50;;
67514;SDS011;60646;55.802;37.032;2023-02-01T01:40:10;6.47;;;3.25;;
67514;SDS011;60646;55.802;37.032;2023-02-01T01:42:37;6.53;;;2.50;;
67514;SDS011;60646;55.802;37.032;2023-02-01T01:45:08;6.07;;;2.90;;
67514;SDS011;60646;55.802;37.032;2023-02-01T01:47:55;4.40;;;2.25;;
67514;SDS011;60646;55.802;37.032;2023-02-01T01:50:25;5.35;;;2.65;;
67514;SDS011;60646;55.802;37.032;2023-02-01T01:52:57;6.35;;;2.63;;
67514;SDS011;60646;55.802;37.032;2023-02-01T01:55:26;6.80;;;3.45;;
67514;SDS011;60646;55.802;37.032;2023-02-01T01:57:57;5.35;;;2.53;;
67514;SDS011;60646;55.802;37.032;2023-02-01T02:00:27;5.82;;;2.50;;
67514;SDS011;60646;55.802;37.032;2023-02-01T02:02:58;5.50;;;2.50;;
67514;SDS011;60646;55.802;37.032;2023-02-01T02:05:40;7.63;;;2.63;;
67514;SDS011;60646;55.802;37.032;2023-02-01T02:08:07;5.28;;;2.72;;
67514;SDS011;60646;55.802;37.032;2023-02-01T02:10:32;6.25;;;2.95;;
67514;SDS011;60646;55.802;37.032;2023-02-01T02:13:17;6.38;;;3.00;;
67514;SDS011;60646;55.802;37.032;2023-02-01T02:15:51;5.72;;;2.65;;
67514;SDS011;60646;55.802;37.032;2023-02-01T02:18:35;6.03;;;2.80;;
67514;SDS011;60646;55.802;37.032;2023-02-01T02:26:38;5.00;;;2.58;;
67514;SDS011;60646;55.802;37.032;2023-02-01T02:37:40;5.72;;;2.67;;
67514;SDS011;60646;55.802;37.032;2023-02-01T02:40:15;6.22;;;2.58;;
67514;SDS011;60646;55.802;37.032;2023-02-01T02:46:45;4.57;;;2.22;;
67514;SDS011;60646;55.802;37.032;2023-02-01T02:52:49;6.18;;;2.58;;
67514;SDS011;60646;55.802;37.032;2023-02-01T02:55:41;4.43;;;2.53;;
67514;SDS011;60646;55.802;37.032;2023-02-01T02:58:08;3.97;;;2.50;;
67514;SDS011;60646;55.802;37.032;2023-02-01T03:00:55;4.80;;;2.45;;
67514;SDS011;60646;55.802;37.032;2023-02-01T03:03:41;6.25;;;2.78;;
67514;SDS011;60646;55.802;37.032;2023-02-01T03:06:27;5.47;;;2.55;;
67514;SDS011;60646;55.802;37.032;2023-02-01T03:08:54;5.85;;;2.58;;
67514;SDS011;60646;55.802;37.032;2023-02-01T03:11:24;5.60;;;2.60;;
67514;SDS011;60646;55.802;37.032;2023-02-01T03:14:10;5.65;;;2.70;;
67514;SDS011;60646;55.802;37.032;2023-02-01T03:16:42;4.85;;;2.60;;
67514;SDS011;60646;55.802;37.032;2023-02-01T03:19:27;4.97;;;2.72;;
67514;SDS011;60646;55.802;37.032;2023-02-01T03:22:03;5.75;;;3.00;;
67514;SDS011;60646;55.802;37.032;2023-02-01T03:24:44;4.68;;;2.50;;
67514;SDS011;60646;55.802;37.032;2023-02-01T03:27:30;6.88;;;2.50;;
67514;SDS011;60646;55.802;37.032;2023-02-01T03:30:09;5.47;;;2.10;;
67514;SDS011;60646;55.802;37.032;2023-02-01T03:32:44;5.05;;;2.60;;
67514;SDS011;60646;55.802;37.032;2023-02-01T03:49:23;5.35;;;2.50;;
67514;SDS011;60646;55.802;37.032;2023-02-01T03:51:53;5.55;;;2.40;;
67514;SDS011;60646;55.802;37.032;2023-02-01T03:54:22;5.25;;;2.63;;
67514;SDS011;60646;55.802;37.032;2023-02-01T03:56:49;6.47;;;2.70;;
67514;SDS011;60646;55.802;37.032;2023-02-01T03:59:16;5.28;;;2.28;;
67514;SDS011;60646;55.802;37.032;2023-02-01T04:01:41;6.80;;;2.80;;
67514;SDS011;60646;55.802;37.032;2023-02-01T04:04:08;6.07;;;2.75;;
67514;SDS011;60646;55.802;37.032;2023-02-01T04:06:36;6.50;;;3.10;;
67514;SDS011;60646;55.802;37.032;2023-02-01T04:09:02;5.00;;;2.55;;
67514;SDS011;60646;55.802;37.032;2023-02-01T04:11:28;5.07;;;3.00;;
67514;SDS011;60646;55.802;37.032;2023-02-01T04:13:54;4.82;;;2.65;;
67514;SDS011;60646;55.802;37.032;2023-02-01T04:16:20;5.00;;;3.00;;
67514;SDS011;60646;55.802;37.032;2023-02-01T04:18:45;5.32;;;2.70;;
67514;SDS011;60646;55.802;37.032;2023-02-01T04:21:11;5.15;;;2.75;;
67514;SDS011;60646;55.802;37.032;2023-02-01T04:23:37;5.93;;;2.90;;
67514;SDS011;60646;55.802;37.032;2023-02-01T04:26:03;4.95;;;2.53;;
67514;SDS011;60646;55.802;37.032;2023-02-01T04:28:29;6.20;;;2.88;;
67514;SDS011;60646;55.802;37.032;2023-02-01T04:30:56;6.13;;;2.60;;
67514;SDS011;60646;55.802;37.032;2023-02-01T04:33:22;6.55;;;2.60;;
67514;SDS011;60646;55.802;37.032;2023-02-01T04:35:48;6.25;;;2.65;;
67514;SDS011;60646;55.802;37.032;2023-02-01T04:38:13;6.13;;;2.90;;
67514;SDS011;60646;55.802;37.032;2023-02-01T04:40:39;5.55;;;2.60;;
67514;SDS011;60646;55.802;37.032;2023-02-01T04:43:05;6.55;;;2.67;;
67514;SDS011;60646;55.802;37.032;2023-02-01T04:45:31;5.20;;;2.95;;
67514;SDS011;60646;55.802;37.032;2023-02-01T04:47:57;7.97;;;2.80;;
67514;SDS011;60646;55.802;37.032;2023-02-01T04:50:22;5.90;;;2.80;;
67514;SDS011;60646;55.802;37.032;2023-02-01T04:52:49;5.72;;;3.05;;
67514;SDS011;60646;55.802;37.032;2023-02-01T04:55:14;5.97;;;2.80;;
67514;SDS011;60646;55.802;37.032;2023-02-01T04:57:40;6.72;;;3.15;;
67514;SDS011;60646;55.802;37.032;2023-02-01T05:00:07;5.85;;;3.35;;
67514;SDS011;60646;55.802;37.032;2023-02-01T05:02:34;6.80;;;3.25;;
67514;SDS011;60646;55.802;37.032;2023-02-01T05:05:00;6.63;;;3.33;;
67514;SDS011;60646;55.802;37.032;2023-02-01T05:07:26;7.22;;;3.50;;
67514;SDS011;60646;55.802;37.032;2023-02-01T05:09:52;6.22;;;3.40;;
67514;SDS011;60646;55.802;37.032;2023-02-01T05:12:17;6.43;;;3.25;;
67514;SDS011;60646;55.802;37.032;2023-02-01T05:15:02;6.78;;;3.20;;
67514;SDS011;60646;55.802;37.032;2023-02-01T05:17:29;4.63;;;2.65;;
67514;SDS011;60646;55.802;37.032;2023-02-01T05:19:55;7.40;;;4.00;;
67514;SDS011;60646;55.802;37.032;2023-02-01T05:22:20;6.90;;;3.20;;
67514;SDS011;60646;55.802;37.032;2023-02-01T05:24:46;5.68;;;3.15;;
67514;SDS011;60646;55.802;37.032;2023-02-01T05:27:12;6.18;;;3.20;;
67514;SDS011;60646;55.802;37.032;2023-02-01T05:29:38;7.68;;;3.38;;
67514;SDS011;60646;55.802;37.032;2023-02-01T05:32:03;8.23;;;3.35;;
67514;SDS011;60646;55.802;37.032;2023-02-01T05:34:29;7.47;;;3.28;;
67514;SDS011;60646;55.802;37.032;2023-02-01T05:36:55;8.32;;;3.15;;
67514;SDS011;60646;55.802;37.032;2023-02-01T05:39:21;7.60;;;3.60;;
67514;SDS011;60646;55.802;37.032;2023-02-01T05:41:46;7.75;;;3.50;;
67514;SDS011;60646;55.802;37.032;2023-02-01T05:44:12;8.15;;;3.42;;
67514;SDS011;60646;55.802;37.032;2023-02-01T05:46:38;7.55;;;3.65;;
67514;SDS011;60646;55.802;37.032;2023-02-01T05:49:04;9.52;;;3.75;;
67514;SDS011;60646;55.802;37.032;2023-02-01T05:51:30;8.80;;;4.32;;
67514;SDS011;60646;55.802;37.032;2023-02-01T05:53:55;9.38;;;3.75;;
67514;SDS011;60646;55.802;37.032;2023-02-01T05:56:21;8.63;;;3.70;;
67514;SDS011;60646;55.802;37.032;2023-02-01T05:58:47;8.18;;;4.00;;
67514;SDS011;60646;55.802;37.032;2023-02-01T06:01:12;9.43;;;3.78;;
67514;SDS011;60646;55.802;37.032;2023-02-01T06:03:38;7.07;;;3.33;;
67514;SDS011;60646;55.802;37.032;2023-02-01T06:06:04;9.13;;;4.38;;
67514;SDS011;60646;55.802;37.032;2023-02-01T06:08:30;8.55;;;4.07;;
67514;SDS011;60646;55.802;37.032;2023-02-01T06:10:59;9.57;;;3.85;;
67514;SDS011;60646;55.802;37.032;2023-02-01T06:13:26;7.97;;;3.30;;
67514;SDS011;60646;55.802;37.032;2023-02-01T06:15:52;8.60;;;4.07;;
67514;SDS011;60646;55.802;37.032;2023-02-01T06:18:18;7.28;;;3.60;;
67514;SDS011;60646;55.802;37.032;2023-02-01T06:20:44;10.35;;;4.10;;
67514;SDS011;60646;55.802;37.032;2023-02-01T06:23:10;10.98;;;4.00;;
67514;SDS011;60646;55.802;37.032;2023-02-01T06:25:35;9.40;;;4.30;;
67514;SDS011;60646;55.802;37.032;2023-02-01T06:28:03;10.02;;;4.45;;
67514;SDS011;60646;55.802;37.032;2023-02-01T06:30:31;10.90;;;4.13;;
67514;SDS011;60646;55.802;37.032;2023-02-01T06:32:57;11.25;;;4.00;;
67514;SDS011;60646;55.802;37.032;2023-02-01T06:35:23;10.20;;;4.38;;
67514;SDS011;60646;55.802;37.032;2023-02-01T06:37:49;10.52;;;4.10;;
67514;SDS011;60646;55.802;37.032;2023-02-01T06:40:14;10.50;;;4.82;;
67514;SDS011;60646;55.802;37.032;2023-02-01T06:42:40;7.18;;;4.00;;
67514;SDS011;60646;55.802;37.032;2023-02-01T06:45:06;9.85;;;4.40;;
67514;SDS011;60646;55.802;37.032;2023-02-01T06:47:32;10.43;;;4.05;;
67514;SDS011;60646;55.802;37.032;2023-02-01T06:49:58;10.77;;;4.32;;
67514;SDS011;60646;55.802;37.032;2023-02-01T06:52:23;8.27;;;3.65;;
67514;SDS011;60646;55.802;37.032;2023-02-01T06:54:49;10.73;;;4.45;;
67514;SDS011;60646;55.802;37.032;2023-02-01T06:57:15;9.25;;;4.05;;
67514;SDS011;60646;55.802;37.032;2023-02-01T06:59:41;11.43;;;4.40;;
67514;SDS011;60646;55.802;37.032;2023-02-01T07:02:09;10.50;;;4.80;;
67514;SDS011;60646;55.802;37.032;2023-02-01T07:04:36;10.48;;;4.30;;
67514;SDS011;60646;55.802;37.032;2023-02-01T07:07:02;10.65;;;4.50;;
67514;SDS011;60646;55.802;37.032;2023-02-01T07:09:27;13.35;;;4.35;;
67514;SDS011;60646;55.802;37.032;2023-02-01T07:11:53;9.48;;;3.90;;
67514;SDS011;60646;55.802;37.032;2023-02-01T07:14:19;12.15;;;4.53;;
67514;SDS011;60646;55.802;37.032;2023-02-01T07:16:44;12.20;;;4.68;;
67514;SDS011;60646;55.802;37.032;2023-02-01T07:19:10;10.52;;;4.53;;
67514;SDS011;60646;55.802;37.032;2023-02-01T07:21:36;9.32;;;4.45;;
67514;SDS011;60646;55.802;37.032;2023-02-01T07:24:02;10.63;;;4.05;;
67514;SDS011;60646;55.802;37.032;2023-02-01T07:26:29;12.27;;;4.57;;
67514;SDS011;60646;55.802;37.032;2023-02-01T07:28:54;12.75;;;4.72;;
67514;SDS011;60646;55.802;37.032;2023-02-01T07:31:20;11.38;;;4.45;;
67514;SDS011;60646;55.802;37.032;2023-02-01T07:33:50;10.25;;;4.38;;
67514;SDS011;60646;55.802;37.032;2023-02-01T07:36:20;11.07;;;4.93;;
67514;SDS011;60646;55.802;37.032;2023-02-01T07:38:46;12.93;;;5.07;;
67514;SDS011;60646;55.802;37.032;2023-02-01T07:41:17;12.73;;;5.07;;
67514;SDS011;60646;55.802;37.032;2023-02-01T07:43:43;11.48;;;4.85;;
67514;SDS011;60646;55.802;37.032;2023-02-01T07:46:09;12.43;;;4.88;;
67514;SDS011;60646;55.802;37.032;2023-02-01T07:48:36;14.27;;;5.22;;
67514;SDS011;60646;55.802;37.032;2023-02-01T07:51:03;13.07;;;4.68;;
67514;SDS011;60646;55.802;37.032;2023-02-01T07:53:30;12.50;;;5.03;;
67514;SDS011;60646;55.802;37.032;2023-02-01T07:55:58;13.68;;;5.38;;
67514;SDS011;60646;55.802;37.032;2023-02-01T07:58:24;13.55;;;5.88;;
67514;SDS011;60646;55.802;37.032;2023-02-01T08:00:50;13.70;;;5.25;;
67514;SDS011;60646;55.802;37.032;2023-02-01T08:03:35;13.82;;;5.28;;
67514;SDS011;60646;55.802;37.032;2023-02-01T08:06:01;12.60;;;5.10;;
67514;SDS011;60646;55.802;37.032;2023-02-01T08:08:27;13.98;;;5.43;;
67514;SDS011;60646;55.802;37.032;2023-02-01T08:10:59;10.90;;;4.57;;
67514;SDS011;60646;55.802;37.032;2023-02-01T08:13:26;11.38;;;4.70;;
67514;SDS011;60646;55.802;37.032;2023-02-01T08:15:52;10.82;;;4.80;;
67514;SDS011;60646;55.802;37.032;2023-02-01T08:18:17;14.07;;;5.30;;
67514;SDS011;60646;55.802;37.032;2023-02-01T08:20:44;13.27;;;4.82;;
67514;SDS011;60646;55.802;37.032;2023-02-01T08:23:11;10.57;;;4.25;;
67514;SDS011;60646;55.802;37.032;2023-02-01T08:25:37;11.20;;;4.80;;
67514;SDS011;60646;55.802;37.032;2023-02-01T08:28:04;13.35;;;4.63;;
67514;SDS011;60646;55.802;37.032;2023-02-01T08:30:31;11.02;;;4.57;;
67514;SDS011;60646;55.802;37.032;2023-02-01T08:32:57;11.48;;;4.35;;
67514;SDS011;60646;55.802;37.032;2023-02-01T08:35:23;13.00;;;4.35;;
67514;SDS011;60646;55.802;37.032;2023-02-01T08:37:51;11.65;;;4.43;;
67514;SDS011;60646;55.802;37.032;2023-02-01T08:40:17;11.10;;;4.25;;
67514;SDS011;60646;55.802;37.032;2023-02-01T08:42:44;10.65;;;3.75;;
67514;SDS011;60646;55.802;37.032;2023-02-01T08:45:16;10.30;;;3.88;;
67514;SDS011;60646;55.802;37.032;2023-02-01T08:47:43;9.68;;;4.18;;
67514;SDS011;60646;55.802;37.032;2023-02-01T08:50:09;11.48;;;4.57;;
67514;SDS011;60646;55.802;37.032;2023-02-01T08:52:36;9.88;;;3.88;;
67514;SDS011;60646;55.802;37.032;2023-02-01T08:55:01;10.82;;;4.38;;
67514;SDS011;60646;55.802;37.032;2023-02-01T08:57:28;10.68;;;4.60;;
67514;SDS011;60646;55.802;37.032;2023-02-01T08:59:54;12.98;;;4.35;;
67514;SDS011;60646;55.802;37.032;2023-02-01T09:02:20;8.63;;;4.03;;
67514;SDS011;60646;55.802;37.032;2023-02-01T09:04:45;12.32;;;4.70;;
67514;SDS011;60646;55.802;37.032;2023-02-01T09:07:11;11.25;;;4.32;;
67514;SDS011;60646;55.802;37.032;2023-02-01T09:09:38;10.63;;;4.05;;
67514;SDS011;60646;55.802;37.032;2023-02-01T09:12:04;11.13;;;3.88;;
67514;SDS011;60646;55.802;37.032;2023-02-01T09:14:30;10.40;;;4.30;;
67514;SDS011;60646;55.802;37.032;2023-02-01T09:16:56;9.68;;;4.35;;
67514;SDS011;60646;55.802;37.032;2023-02-01T09:19:22;11.13;;;4.53;;
67514;SDS011;60646;55.802;37.032;2023-02-01T09:21:47;13.27;;;4.65;;
67514;SDS011;60646;55.802;37.032;2023-02-01T09:24:13;9.38;;;4.10;;
67514;SDS011;60646;55.802;37.032;2023-02-01T09:26:39;9.18;;;4.20;;
67514;SDS011;60646;55.802;37.032;2023-02-01T09:29:05;11.85;;;4.38;;
67514;SDS011;60646;55.802;37.032;2023-02-01T09:31:38;11.68;;;4.47;;
67514;SDS011;60646;55.802;37.032;2023-02-01T09:34:05;9.27;;;4.00;;
67514;SDS011;60646;55.802;37.032;2023-02-01T09:36:31;11.60;;;4.07;;
67514;SDS011;60646;55.802;37.032;2023-02-01T09:38:57;10.18;;;4.22;;
67514;SDS011;60646;55.802;37.032;2023-02-01T09:46:58;9.80;;;4.07;;
67514;SDS011;60646;55.802;37.032;2023-02-01T09:49:28;12.40;;;4.78;;
67514;SDS011;60646;55.802;37.032;2023-02-01T09:51:57;9.48;;;3.53;;
67514;SDS011;60646;55.802;37.032;2023-02-01T09:54:27;7.82;;;4.13;;
67514;SDS011;60646;55.802;37.032;2023-02-01T09:57:08;10.10;;;3.80;;
67514;SDS011;60646;55.802;37.032;2023-02-01T09:59:40;8.80;;;3.80;;
67514;SDS011;60646;55.802;37.032;2023-02-01T10:02:19;13.45;;;4.85;;
67514;SDS011;60646;55.802;37.032;2023-02-01T10:04:48;10.77;;;4.53;;
67514;SDS011;60646;55.802;37.032;2023-02-01T10:07:34;12.43;;;5.03;;
67514;SDS011;60646;55.802;37.032;2023-02-01T10:10:02;10.10;;;4.30;;
67514;SDS011;60646;55.802;37.032;2023-02-01T10:23:44;9.07;;;4.05;;
67514;SDS011;60646;55.802;37.032;2023-02-01T10:26:15;7.25;;;3.78;;
67514;SDS011;60646;55.802;37.032;2023-02-01T10:28:58;11.10;;;4.10;;
67514;SDS011;60646;55.802;37.032;2023-02-01T10:31:28;9.27;;;4.07;;
67514;SDS011;60646;55.802;37.032;2023-02-01T10:33:57;9.20;;;3.60;;
67514;SDS011;60646;55.802;37.032;2023-02-01T10:36:38;10.20;;;4.03;;
67514;SDS011;60646;55.802;37.032;2023-02-01T10:39:08;9.32;;;4.00;;
67514;SDS011;60646;55.802;37.032;2023-02-01T10:41:38;11.07;;;4.20;;
67514;SDS011;60646;55.802;37.032;2023-02-01T10:44:12;10.73;;;3.60;;
67514;SDS011;60646;55.802;37.032;2023-02-01T10:46:40;6.60;;;3.15;;
67514;SDS011;60646;55.802;37.032;2023-02-01T10:49:08;9.55;;;4.38;;
67514;SDS011;60646;55.802;37.032;2023-02-01T10:54:52;7.47;;;3.53;;
67514;SDS011;60646;55.802;37.032;2023-02-01T10:57:22;8.80;;;3.90;;
67514;SDS011;60646;55.802;37.032;2023-02-01T10:59:55;8.57;;;3.90;;
67514;SDS011;60646;55.802;37.032;2023-02-01T11:04:57;9.13;;;4.38;;
67514;SDS011;60646;55.802;37.032;2023-02-01T11:07:28;8.15;;;3.50;;
67514;SDS011;60646;55.802;37.032;2023-02-01T11:09:55;7.65;;;3.85;;
67514;SDS011;60646;55.802;37.032;2023-02-01T11:14:54;7.75;;;3.75;;
67514;SDS011;60646;55.802;37.032;2023-02-01T11:17:25;8.70;;;3.65;;
67514;SDS011;60646;55.802;37.032;2023-02-01T11:19:59;9.07;;;3.85;;
67514;SDS011;60646;55.802;37.032;2023-02-01T11:22:27;7.93;;;3.55;;
67514;SDS011;60646;55.802;37.032;2023-02-01T11:24:54;7.88;;;3.53;;
67514;SDS011;60646;55.802;37.032;2023-02-01T11:27:22;7.60;;;3.20;;
67514;SDS011;60646;55.802;37.032;2023-02-01T11:29:50;7.85;;;3.80;;
67514;SDS011;60646;55.802;37.032;2023-02-01T11:32:19;6.78;;;3.33;;
67514;SDS011;60646;55.802;37.032;2023-02-01T11:34:51;7.88;;;3.50;;
67514;SDS011;60646;55.802;37.032;2023-02-01T11:39:54;8.90;;;3.95;;
67514;SDS011;60646;55.802;37.032;2023-02-01T11:42:25;8.75;;;3.75;;
67514;SDS011;60646;55.802;37.032;2023-02-01T11:44:56;7.80;;;3.30;;
67514;SDS011;60646;55.802;37.032;2023-02-01T11:47:51;8.90;;;3.45;;
67514;SDS011;60646;55.802;37.032;2023-02-01T11:50:21;6.13;;;3.30;;
67514;SDS011;60646;55.802;37.032;2023-02-01T12:03:23;7.45;;;3.45;;
67514;SDS011;60646;55.802;37.032;2023-02-01T12:22:46;7.65;;;3.83;;
67514;SDS011;60646;55.802;37.032;2023-02-01T12:36:45;5.95;;;3.13;;
67514;SDS011;60646;55.802;37.032;2023-02-01T12:39:24;6.00;;;2.78;;
67514;SDS011;60646;55.802;37.032;2023-02-01T12:44:32;6.35;;;3.17;;
67514;SDS011;60646;55.802;37.032;2023-02-01T12:55:21;8.05;;;3.50;;
67514;SDS011;60646;55.802;37.032;2023-02-01T12:57:56;7.25;;;3.53;;
67514;SDS011;60646;55.802;37.032;2023-02-01T13:00:39;6.97;;;3.40;;
67514;SDS011;60646;55.802;37.032;2023-02-01T13:05:51;9.27;;;4.45;;
67514;SDS011;60646;55.802;37.032;2023-02-01T13:08:45;6.93;;;3.83;;
67514;SDS011;60646;55.802;37.032;2023-02-01T13:11:35;8.82;;;3.80;;
67514;SDS011;60646;55.802;37.032;2023-02-01T13:17:11;8.18;;;3.85;;
67514;SDS011;60646;55.802;37.032;2023-02-01T13:22:20;8.10;;;4.38;;
67514;SDS011;60646;55.802;37.032;2023-02-01T13:24:58;9.45;;;4.15;;
67514;SDS011;60646;55.802;37.032;2023-02-01T13:27:29;9.73;;;4.47;;
67514;SDS011;60646;55.802;37.032;2023-02-01T13:35:24;9.63;;;3.92;;
67514;SDS011;60646;55.802;37.032;2023-02-01T13:41:10;8.98;;;3.88;;
67514;SDS011;60646;55.802;37.032;2023-02-01T13:43:38;8.38;;;4.07;;
67514;SDS011;60646;55.802;37.032;2023-02-01T13:46:07;8.60;;;3.85;;
67514;SDS011;60646;55.802;37.032;2023-02-01T13:48:45;9.85;;;4.30;;
67514;SDS011;60646;55.802;37.032;2023-02-01T13:51:14;11.02;;;3.92;;
67514;SDS011;60646;55.802;37.032;2023-02-01T13:53:47;8.57;;;3.90;;
67514;SDS011;60646;55.802;37.032;2023-02-01T13:58:47;10.00;;;4.03;;
67514;SDS011;60646;55.802;37.032;2023-02-01T14:09:10;10.80;;;4.25;;
67514;SDS011;60646;55.802;37.032;2023-02-01T14:16:43;12.10;;;4.95;;
67514;SDS011;60646;55.802;37.032;2023-02-01T14:19:30;11.88;;;4.60;;
67514;SDS011;60646;55.802;37.032;2023-02-01T14:22:01;13.43;;;4.80;;
67514;SDS011;60646;55.802;37.032;2023-02-01T14:24:52;8.18;;;4.07;;
67514;SDS011;60646;55.802;37.032;2023-02-01T14:27:20;8.55;;;4.20;;
67514;SDS011;60646;55.802;37.032;2023-02-01T14:29:53;9.82;;;3.83;;
67514;SDS011;60646;55.802;37.032;2023-02-01T14:32:30;7.47;;;3.90;;
67514;SDS011;60646;55.802;37.032;2023-02-01T14:34:59;7.85;;;3.72;;
67514;SDS011;60646;55.802;37.032;2023-02-01T14:37:27;9.20;;;3.97;;
67514;SDS011;60646;55.802;37.032;2023-02-01T14:40:04;7.72;;;3.72;;
67514;SDS011;60646;55.802;37.032;2023-02-01T14:53:10;10.38;;;4.20;;
67514;SDS011;60646;55.802;37.032;2023-02-01T14:58:18;9.88;;;4.63;;
67514;SDS011;60646;55.802;37.032;2023-02-01T15:00:52;8.02;;;4.03;;
67514;SDS011;60646;55.802;37.032;2023-02-01T15:06:03;9.60;;;4.25;;
67514;SDS011;60646;55.802;37.032;2023-02-01T15:08:35;10.10;;;4.05;;
67514;SDS011;60646;55.802;37.032;2023-02-01T15:11:10;9.23;;;4.22;;
67514;SDS011;60646;55.802;37.032;2023-02-01T15:13:58;7.32;;;4.03;;
67514;SDS011;60646;55.802;37.032;2023-02-01T15:16:25;12.45;;;3.92;;
67514;SDS011;60646;55.802;37.032;2023-02-01T15:19:06;9.18;;;4.03;;
67514;SDS011;60646;55.802;37.032;2023-02-01T15:21:33;8.40;;;3.25;;
67514;SDS011;60646;55.802;37.032;2023-02-01T15:24:12;8.25;;;3.60;;
67514;SDS011;60646;55.802;37.032;2023-02-01T15:26:39;8.07;;;3.88;;
67514;SDS011;60646;55.802;37.032;2023-02-01T15:29:08;9.57;;;3.78;;
67514;SDS011;60646;55.802;37.032;2023-02-01T15:31:37;8.95;;;3.88;;
67514;SDS011;60646;55.802;37.032;2023-02-01T15:34:06;8.68;;;3.25;;
67514;SDS011;60646;55.802;37.032;2023-02-01T15:36:32;8.60;;;3.47;;
67514;SDS011;60646;55.802;37.032;2023-02-01T15:39:18;8.32;;;3.60;;
67514;SDS011;60646;55.802;37.032;2023-02-01T15:44:41;12.30;;;4.45;;
67514;SDS011;60646;55.802;37.032;2023-02-01T15:47:24;8.30;;;3.95;;
67514;SDS011;60646;55.802;37.032;2023-02-01T15:49:56;7.47;;;3.80;;
67514;SDS011;60646;55.802;37.032;2023-02-01T15:52:24;9.50;;;4.27;;
67514;SDS011;60646;55.802;37.032;2023-02-01T15:55:17;11.18;;;3.97;;
67514;SDS011;60646;55.802;37.032;2023-02-01T15:57:45;8.45;;;3.47;;
67514;SDS011;60646;55.802;37.032;2023-02-01T16:00:28;9.23;;;3.90;;
67514;SDS011;60646;55.802;37.032;2023-02-01T16:02:59;11.73;;;4.20;;
67514;SDS011;60646;55.802;37.032;2023-02-01T16:05:29;12.05;;;3.88;;
67514;SDS011;60646;55.802;37.032;2023-02-01T16:08:04;9.98;;;4.25;;
67514;SDS011;60646;55.802;37.032;2023-02-01T16:10:41;10.07;;;3.83;;
67514;SDS011;60646;55.802;37.032;2023-02-01T16:13:13;5.93;;;3.20;;
67514;SDS011;60646;55.802;37.032;2023-02-01T16:15:39;9.52;;;3.85;;
67514;SDS011;60646;55.802;37.032;2023-02-01T16:18:05;9.18;;;3.85;;
67514;SDS011;60646;55.802;37.032;2023-02-01T16:20:35;8.82;;;3.58;;
67514;SDS011;60646;55.802;37.032;2023-02-01T16:23:02;11.77;;;4.85;;
67514;SDS011;60646;55.802;37.032;2023-02-01T16:25:29;12.23;;;4.35;;
67514;SDS011;60646;55.802;37.032;2023-02-01T16:27:55;10.05;;;4.22;;
67514;SDS011;60646;55.802;37.032;2023-02-01T16:30:21;9.82;;;4.22;;
67514;SDS011;60646;55.802;37.032;2023-02-01T16:32:48;8.68;;;3.58;;
67514;SDS011;60646;55.802;37.032;2023-02-01T16:35:33;9.70;;;4.28;;
67514;SDS011;60646;55.802;37.032;2023-02-01T16:38:01;10.82;;;4.63;;
67514;SDS011;60646;55.802;37.032;2023-02-01T16:40:33;12.82;;;4.13;;
67514;SDS011;60646;55.802;37.032;2023-02-01T16:43:00;9.13;;;3.78;;
67514;SDS011;60646;55.802;37.032;2023-02-01T16:45:25;7.88;;;3.28;;
67514;SDS011;60646;55.802;37.032;2023-02-01T16:47:54;11.82;;;4.55;;
67514;SDS011;60646;55.802;37.032;2023-02-01T16:50:21;9.18;;;3.95;;
67514;SDS011;60646;55.802;37.032;2023-02-01T16:52:48;10.38;;;4.03;;
67514;SDS011;60646;55.802;37.032;2023-02-01T16:55:15;9.52;;;4.22;;
67514;SDS011;60646;55.802;37.032;2023-02-01T16:57:42;11.65;;;4.78;;
67514;SDS011;60646;55.802;37.032;2023-02-01T17:00:09;11.48;;;4.25;;
67514;SDS011;60646;55.802;37.032;2023-02-01T17:02:37;11.95;;;4.70;;
67514;SDS011;60646;55.802;37.032;2023-02-01T17:05:04;11.18;;;4.53;;
67514;SDS011;60646;55.802;37.032;2023-02-01T17:07:33;8.18;;;3.97;;
67514;SDS011;60646;55.802;37.032;2023-02-01T17:09:59;10.10;;;3.85;;
67514;SDS011;60646;55.802;37.032;2023-02-01T17:12:29;11.13;;;4.10;;
67514;SDS011;60646;55.802;37.032;2023-02-01T17:14:57;11.82;;;4.25;;
67514;SDS011;60646;55.802;37.032;2023-02-01T17:17:42;10.48;;;4.05;;
67514;SDS011;60646;55.802;37.032;2023-02-01T17:20:10;11.15;;;4.82;;
67514;SDS011;60646;55.802;37.032;2023-02-01T17:22:44;12.30;;;4.32;;
67514;SDS011;60646;55.802;37.032;2023-02-01T17:25:14;8.00;;;4.00;;
67514;SDS011;60646;55.802;37.032;2023-02-01T17:27:44;11.52;;;3.97;;
67514;SDS011;60646;55.802;37.032;2023-02-01T17:30:13;11.20;;;4.30;;
67514;SDS011;60646;55.802;37.032;2023-02-01T17:32:39;12.65;;;4.80;;
67514;SDS011;60646;55.802;37.032;2023-02-01T17:35:10;10.38;;;3.72;;